Time;durP1;ratioP1;P1;durP2;ratioP2;P2;SDS_P1;SDS_P2;PMS_P1;PMS_P2;Temp;Humidity;BMP_temperature;BMP_pressure;BME280_temperature;BME280_humidity;BME280_pressure;Samples;Min_cycle;Max_cycle;Signal;HPM_P1;HPM_P2
2023/09/02 00:01:01;;;;;;;103.68;51.00;;;;;;;17.75;100.00;101660.66;5019612;28;20037;-92
2023/09/02 00:03:26;;;;;;;83.32;44.05;;;;;;;17.66;100.00;101664.06;5038244;28;20494;-90
2023/09/02 00:05:53;;;;;;;80.25;43.72;;;;;;;17.72;100.00;101666.28;5025475;28;20205;-91
2023/09/02 00:08:19;;;;;;;94.95;48.70;;;;;;;17.70;100.00;101670.06;5054197;28;20522;-91
2023/09/02 00:10:45;;;;;;;83.63;46.35;;;;;;;17.69;100.00;101674.63;5024698;28;20081;-92
2023/09/02 00:13:10;;;;;;;104.25;49.55;;;;;;;17.67;100.00;101663.09;5018197;28;20037;-91
2023/09/02 00:15:36;;;;;;;96.97;47.28;;;;;;;17.66;100.00;101653.25;5018969;28;20037;-92
2023/09/02 00:18:01;;;;;;;81.35;43.80;;;;;;;17.53;100.00;101652.56;5024745;28;20076;-91
2023/09/02 00:20:27;;;;;;;82.25;44.05;;;;;;;17.52;100.00;101649.00;5039378;28;20044;-91
2023/09/02 00:22:53;;;;;;;83.45;43.67;;;;;;;17.43;100.00;101635.38;5041107;28;20557;-92
2023/09/02 00:25:22;;;;;;;89.43;44.72;;;;;;;17.20;100.00;101643.44;5057746;28;20099;-90
2023/09/02 00:27:48;;;;;;;79.47;43.72;;;;;;;17.16;100.00;101649.19;5021475;28;20037;-91
2023/09/02 00:30:14;;;;;;;88.07;44.45;;;;;;;17.07;100.00;101645.41;5038330;28;20044;-92
2023/09/02 00:32:40;;;;;;;82.57;41.92;;;;;;;17.03;100.00;101647.47;5007658;28;20116;-91
2023/09/02 00:35:07;;;;;;;90.97;43.10;;;;;;;16.91;100.00;101648.41;5037971;28;20045;-91
2023/09/02 00:37:33;;;;;;;77.88;41.80;;;;;;;16.89;100.00;101649.50;5037756;28;20088;-91
2023/09/02 00:39:58;;;;;;;89.18;43.35;;;;;;;16.82;100.00;101646.44;5021759;28;20433;-91
2023/09/02 00:42:27;;;;;;;103.10;45.50;;;;;;;16.77;100.00;101649.47;5038592;28;20037;-90
2023/09/02 00:44:53;;;;;;;84.07;40.13;;;;;;;16.76;100.00;101650.44;5018574;28;20038;-92
2023/09/02 00:47:19;;;;;;;77.30;37.70;;;;;;;16.67;100.00;101655.66;5018891;28;20045;-91
2023/09/02 00:49:45;;;;;;;85.97;41.35;;;;;;;16.69;100.00;101653.69;5002325;28;20724;-91
2023/09/02 00:52:11;;;;;;;79.15;41.28;;;;;;;16.62;100.00;101663.19;5009440;28;20040;-90
2023/09/02 00:54:36;;;;;;;91.20;42.28;;;;;;;16.60;100.00;101651.69;5036491;28;20037;-92
2023/09/02 00:57:06;;;;;;;87.82;40.13;;;;;;;16.61;100.00;101648.03;5041737;28;20076;-91
2023/09/02 00:59:32;;;;;;;73.57;38.20;;;;;;;16.56;100.00;101649.22;5036449;28;20124;-92
2023/09/02 01:02:02;;;;;;;77.10;39.00;;;;;;;16.50;100.00;101649.69;5040694;28;20041;-90
2023/09/02 01:04:27;;;;;;;78.18;39.75;;;;;;;16.54;100.00;101661.09;5040063;28;20036;-93
2023/09/02 01:06:55;;;;;;;86.35;40.17;;;;;;;16.48;100.00;101653.50;5057639;28;20044;-90
2023/09/02 01:09:21;;;;;;;252.18;43.60;;;;;;;16.37;100.00;101656.13;5036359;28;20034;-90
2023/09/02 01:11:48;;;;;;;133.90;34.78;;;;;;;16.31;100.00;101646.66;5017758;28;20036;-92
2023/09/02 01:14:14;;;;;;;67.20;29.83;;;;;;;16.29;100.00;101646.78;5038208;28;20120;-90
2023/09/02 01:16:40;;;;;;;72.65;33.97;;;;;;;16.27;100.00;101640.66;5049742;28;20042;-92
2023/09/02 01:19:12;;;;;;;81.18;37.38;;;;;;;16.26;100.00;101647.00;5006683;28;20041;-92
2023/09/02 01:22:07;;;;;;;79.43;36.65;;;;;;;16.25;100.00;101644.44;5019446;28;20041;-91
2023/09/02 01:25:04;;;;;;;91.32;39.15;;;;;;;16.28;100.00;101658.53;5038275;28;20113;-91
2023/09/02 01:27:42;;;;;;;83.18;38.58;;;;;;;16.35;100.00;101652.69;5034180;28;20038;-90
2023/09/02 01:30:11;;;;;;;76.00;37.40;;;;;;;16.49;100.00;101652.50;5032974;28;20049;-91
2023/09/02 01:32:40;;;;;;;67.75;34.53;;;;;;;16.61;100.00;101654.25;5038996;28;20064;-92
2023/09/02 01:35:07;;;;;;;93.15;42.35;;;;;;;16.69;100.00;101656.38;5038453;28;20096;-93
2023/09/02 01:37:38;;;;;;;86.85;41.17;;;;;;;16.68;100.00;101658.22;5031829;28;20038;-92
2023/09/02 01:40:06;;;;;;;93.43;42.10;;;;;;;16.60;100.00;101655.25;5031880;28;20100;-91
2023/09/02 01:42:33;;;;;;;93.72;43.15;;;;;;;16.60;100.00;101662.47;5039422;28;20088;-91
2023/09/02 01:45:00;;;;;;;84.15;39.15;;;;;;;16.68;100.00;101669.00;5046154;28;20037;-92
2023/09/02 01:47:26;;;;;;;78.85;38.00;;;;;;;16.71;100.00;101662.50;5053301;28;20042;-91
2023/09/02 01:49:53;;;;;;;76.75;38.95;;;;;;;16.66;100.00;101653.91;5022434;28;20045;-92
2023/09/02 01:52:19;;;;;;;100.30;42.05;;;;;;;16.62;100.00;101663.19;5022307;28;20033;-91
2023/09/02 01:54:46;;;;;;;72.53;36.42;;;;;;;16.63;100.00;101655.03;5023294;28;20033;-91
2023/09/02 01:57:12;;;;;;;77.82;37.67;;;;;;;16.53;100.00;101651.31;5022826;28;20041;-91
2023/09/02 01:59:38;;;;;;;95.53;39.42;;;;;;;16.48;100.00;101654.34;5019115;28;20026;-91
2023/09/02 02:02:03;;;;;;;68.35;35.22;;;;;;;16.47;100.00;101659.84;5020109;28;20030;-91
2023/09/02 02:04:40;;;;;;;63.60;34.00;;;;;;;16.43;100.00;101656.53;5039133;28;20033;-92
2023/09/02 02:07:13;;;;;;;62.47;30.25;;;;;;;16.35;100.00;101658.06;5039288;28;20048;-91
2023/09/02 02:09:53;;;;;;;108.93;34.33;;;;;;;16.33;100.00;101668.94;5028603;28;20098;-91
2023/09/02 02:12:20;;;;;;;70.18;28.35;;;;;;;16.24;100.00;101661.56;5041652;28;20052;-91
2023/09/02 02:14:46;;;;;;;291.63;37.03;;;;;;;16.21;100.00;101667.16;5041778;28;20917;-91
2023/09/02 02:17:13;;;;;;;78.93;26.85;;;;;;;16.13;100.00;101662.34;5027335;28;20045;-92
2023/09/02 02:19:40;;;;;;;56.92;26.63;;;;;;;16.05;100.00;101672.81;5045782;28;20025;-90
2023/09/02 02:22:06;;;;;;;54.20;27.15;;;;;;;16.08;100.00;101677.13;5018440;28;20029;-92
2023/09/02 02:24:31;;;;;;;52.28;27.40;;;;;;;16.13;100.00;101672.25;5045179;28;20117;-91
2023/09/02 02:26:57;;;;;;;50.50;24.92;;;;;;;16.13;100.00;101674.94;5028627;28;20037;-91
2023/09/02 02:29:23;;;;;;;52.33;28.20;;;;;;;16.15;100.00;101681.94;5015786;28;20430;-91
2023/09/02 02:31:50;;;;;;;100.40;37.22;;;;;;;16.22;100.00;101683.22;5026837;28;20098;-92
2023/09/02 02:34:15;;;;;;;51.22;24.92;;;;;;;16.28;100.00;101679.22;5029311;28;20128;-91
2023/09/02 02:36:41;;;;;;;61.78;31.67;;;;;;;16.29;100.00;101681.78;5026569;28;20038;-91
2023/09/02 02:39:07;;;;;;;65.32;33.13;;;;;;;16.30;100.00;101675.41;5028601;28;20037;-91
2023/09/02 02:41:32;;;;;;;63.88;30.83;;;;;;;16.27;100.00;101667.59;5026013;28;20076;-91
2023/09/02 02:43:59;;;;;;;68.18;33.58;;;;;;;16.24;100.00;101678.56;5052701;28;20422;-92
2023/09/02 02:46:26;;;;;;;56.50;28.63;;;;;;;16.14;100.00;101666.75;5063722;28;20048;-91
2023/09/02 02:48:51;;;;;;;45.65;24.38;;;;;;;16.05;100.00;101664.75;5023888;28;20467;-91
2023/09/02 02:51:18;;;;;;;50.38;24.92;;;;;;;16.04;100.00;101668.41;5014338;28;20057;-91
2023/09/02 02:53:45;;;;;;;59.58;28.75;;;;;;;15.99;100.00;101667.88;5034350;28;20033;-91
2023/09/02 02:56:11;;;;;;;260.23;41.67;;;;;;;15.86;100.00;101672.44;5029590;28;20034;-91
2023/09/02 02:58:37;;;;;;;143.65;39.58;;;;;;;15.88;100.00;101673.19;5008885;28;20035;-91
2023/09/02 03:01:05;;;;;;;60.95;30.40;;;;;;;15.88;100.00;101687.50;5017591;28;20037;-90
2023/09/02 03:03:31;;;;;;;67.63;33.17;;;;;;;15.96;100.00;101689.63;5024159;28;20041;-91
2023/09/02 03:06:00;;;;;;;62.88;32.40;;;;;;;16.00;100.00;101681.22;5024854;28;20045;-90
2023/09/02 03:08:26;;;;;;;125.55;39.25;;;;;;;16.07;100.00;101680.78;5024509;28;20021;-90
2023/09/02 03:11:00;;;;;;;67.88;31.35;;;;;;;16.03;100.00;101682.84;5010721;28;20046;-91
2023/09/02 03:13:29;;;;;;;257.50;46.10;;;;;;;16.00;100.00;101664.22;5021381;28;20046;-91
2023/09/02 03:15:57;;;;;;;228.15;39.08;;;;;;;15.98;100.00;101666.16;5021683;28;20641;-90
2023/09/02 03:18:24;;;;;;;133.57;33.95;;;;;;;16.07;100.00;101670.03;5018345;28;20037;-90
2023/09/02 03:20:50;;;;;;;73.53;32.42;;;;;;;16.13;100.00;101677.66;5041352;28;20099;-91
2023/09/02 03:23:15;;;;;;;67.60;32.42;;;;;;;16.21;100.00;101673.41;5025356;28;20060;-90
2023/09/02 03:25:41;;;;;;;71.40;31.63;;;;;;;16.30;100.00;101683.47;5025590;28;20040;-90
2023/09/02 03:28:07;;;;;;;71.35;32.30;;;;;;;16.36;100.00;101686.69;5041884;28;20375;-91
2023/09/02 03:30:33;;;;;;;66.95;33.28;;;;;;;16.42;100.00;101681.72;5042434;28;20048;-90
2023/09/02 03:32:59;;;;;;;82.68;36.33;;;;;;;16.43;100.00;101687.97;5034054;28;20042;-91
2023/09/02 03:35:26;;;;;;;79.93;35.75;;;;;;;16.47;100.00;101686.78;5016604;28;20034;-90
2023/09/02 03:37:52;;;;;;;84.97;38.35;;;;;;;16.51;100.00;101686.41;5019029;28;20772;-91
2023/09/02 03:40:21;;;;;;;84.00;37.17;;;;;;;16.52;100.00;101679.22;5028288;28;20061;-91
2023/09/02 03:42:47;;;;;;;99.53;40.05;;;;;;;16.48;100.00;101688.50;5019184;28;20045;-92
2023/09/02 03:45:13;;;;;;;75.68;34.55;;;;;;;16.52;100.00;101695.38;5027115;28;20030;-91
2023/09/02 03:47:40;;;;;;;91.70;37.95;;;;;;;16.57;100.00;101691.34;5044227;28;20128;-90
2023/09/02 03:50:07;;;;;;;106.30;39.22;;;;;;;16.54;100.00;101693.41;5045172;28;20110;-91
2023/09/02 03:52:33;;;;;;;78.75;34.45;;;;;;;16.59;100.00;101704.69;5029980;28;20045;-92
2023/09/02 03:54:59;;;;;;;102.50;40.75;;;;;;;16.59;100.00;101702.00;5029738;28;20177;-90
2023/09/02 03:57:26;;;;;;;79.57;37.65;;;;;;;16.58;100.00;101701.16;5017073;28;20079;-90
2023/09/02 03:59:51;;;;;;;91.97;37.78;;;;;;;16.63;100.00;101706.19;5015415;28;20039;-89
2023/09/02 04:02:18;;;;;;;80.10;33.90;;;;;;;16.66;100.00;101700.56;5046689;28;20131;-90
2023/09/02 04:04:46;;;;;;;81.95;35.75;;;;;;;16.72;100.00;101693.91;5045730;28;20037;-90
2023/09/02 04:07:12;;;;;;;77.38;36.75;;;;;;;16.72;100.00;101699.28;5033822;28;20057;-90
2023/09/02 04:09:38;;;;;;;81.30;37.90;;;;;;;16.75;100.00;101697.22;5015559;28;20048;-88
2023/09/02 04:12:04;;;;;;;97.50;38.92;;;;;;;16.79;100.00;101701.38;5034002;28;20690;-90
2023/09/02 04:14:30;;;;;;;75.45;38.65;;;;;;;16.79;100.00;101703.22;5026586;28;20044;-88
2023/09/02 04:16:59;;;;;;;114.55;41.20;;;;;;;16.75;100.00;101704.44;5030407;28;20061;-88
2023/09/02 04:19:25;;;;;;;111.10;41.88;;;;;;;16.57;100.00;101714.75;5048852;28;20030;-89
2023/09/02 04:21:54;;;;;;;108.78;41.63;;;;;;;16.65;100.00;101719.53;5023877;28;20121;-88
2023/09/02 04:24:20;;;;;;;179.57;52.60;;;;;;;16.63;100.00;101714.28;5023921;28;20042;-89
2023/09/02 04:26:46;;;;;;;244.93;57.63;;;;;;;16.50;100.00;101733.16;5037342;28;20049;-91
2023/09/02 04:29:11;;;;;;;168.82;51.28;;;;;;;16.44;100.00;101736.31;5053298;28;20033;-91
2023/09/02 04:31:37;;;;;;;125.68;46.88;;;;;;;16.48;100.00;101739.66;5034336;28;20030;-90
2023/09/02 04:34:04;;;;;;;213.13;54.05;;;;;;;16.59;100.00;101745.09;5023609;28;20033;-88
2023/09/02 04:36:30;;;;;;;219.52;58.28;;;;;;;16.61;100.00;101744.97;5053081;28;20029;-90
2023/09/02 04:38:56;;;;;;;418.33;77.57;;;;;;;16.64;100.00;101744.75;5035003;28;20046;-89
2023/09/02 04:41:22;;;;;;;209.25;60.88;;;;;;;16.58;100.00;101751.47;5016846;28;20038;-90
2023/09/02 04:43:49;;;;;;;203.50;55.63;;;;;;;16.66;100.00;101759.81;5029273;28;20018;-89
2023/09/02 04:46:15;;;;;;;223.32;59.30;;;;;;;16.69;100.00;101756.91;5038604;28;20033;-90
2023/09/02 04:48:46;;;;;;;261.58;59.90;;;;;;;16.73;100.00;101760.25;5032779;28;20045;-91
2023/09/02 04:51:12;;;;;;;343.33;69.50;;;;;;;16.74;100.00;101764.66;5037711;28;20089;-90
2023/09/02 04:53:39;;;;;;;296.10;61.28;;;;;;;16.70;100.00;101765.84;5023536;28;20193;-88
2023/09/02 04:56:05;;;;;;;316.98;69.78;;;;;;;16.78;100.00;101756.25;5016158;28;20037;-89
2023/09/02 04:58:32;;;;;;;449.92;74.93;;;;;;;16.81;100.00;101765.91;5041983;28;20069;-89
2023/09/02 05:01:11;;;;;;;419.15;69.40;;;;;;;16.63;100.00;101768.13;5035366;28;20112;-88
2023/09/02 05:03:40;;;;;;;432.48;73.63;;;;;;;16.56;100.00;101780.31;5038397;28;20098;-89
2023/09/02 05:06:08;;;;;;;458.90;71.30;;;;;;;16.51;100.00;101786.03;5036302;28;20030;-89
2023/09/02 05:08:38;;;;;;;;;;;;;;;16.53;100.00;101800.25;5031424;28;21001;-88
2023/09/02 05:11:04;;;;;;;391.63;66.03;;;;;;;16.54;100.00;101817.28;5025013;28;19927;-90
2023/09/02 05:13:30;;;;;;;620.92;84.78;;;;;;;16.58;100.00;101816.94;5028013;28;20040;-88
2023/09/02 05:15:56;;;;;;;658.55;90.07;;;;;;;16.60;100.00;101814.13;5036550;28;20053;-88
2023/09/02 05:18:22;;;;;;;574.38;84.70;;;;;;;16.66;100.00;101812.81;5023422;28;20040;-90
2023/09/02 05:20:48;;;;;;;482.95;74.97;;;;;;;16.60;100.00;101821.34;5059844;28;20065;-88
2023/09/02 05:23:14;;;;;;;658.55;90.80;;;;;;;16.53;100.00;101824.50;5044618;28;20045;-89
2023/09/02 05:25:40;;;;;;;509.70;73.80;;;;;;;16.57;100.00;101828.69;5019325;28;20166;-91
2023/09/02 05:28:05;;;;;;;518.05;80.75;;;;;;;16.61;100.00;101832.00;5038709;28;20120;-90
2023/09/02 05:30:35;;;;;;;545.13;80.93;;;;;;;16.66;100.00;101826.28;5018010;28;20038;-90
2023/09/02 05:33:01;;;;;;;617.65;92.00;;;;;;;16.77;100.00;101829.09;5018505;28;20030;-89
2023/09/02 05:35:27;;;;;;;402.25;67.85;;;;;;;16.82;100.00;101827.78;5045200;28;20033;-88
2023/09/02 05:37:52;;;;;;;295.98;61.42;;;;;;;16.71;100.00;101832.19;5040069;28;20033;-91
2023/09/02 05:40:19;;;;;;;376.92;68.63;;;;;;;16.72;100.00;101836.66;5037767;28;20038;-88
2023/09/02 05:42:44;;;;;;;391.83;69.88;;;;;;;16.85;100.00;101833.91;5024576;28;20046;-90
2023/09/02 05:45:10;;;;;;;374.70;65.75;;;;;;;16.93;100.00;101836.91;5037829;28;20045;-89
2023/09/02 05:47:36;;;;;;;390.33;71.97;;;;;;;17.04;100.00;101836.97;5036169;28;20085;-88
2023/09/02 05:50:02;;;;;;;389.35;69.20;;;;;;;17.06;100.00;101830.47;5040070;28;20477;-90
2023/09/02 05:52:27;;;;;;;248.30;54.05;;;;;;;17.14;100.00;101826.34;5036988;28;20045;-89
2023/09/02 05:54:56;;;;;;;488.60;77.25;;;;;;;17.08;100.00;101831.22;5036798;28;20061;-90
2023/09/02 05:57:22;;;;;;;429.00;70.53;;;;;;;17.11;100.00;101834.66;5012845;28;20026;-90
2023/09/02 05:59:47;;;;;;;488.17;74.70;;;;;;;17.16;100.00;101843.25;5043991;28;20065;-89
2023/09/02 06:02:17;;;;;;;447.13;69.13;;;;;;;17.13;100.00;101846.19;5062484;28;20045;-89
2023/09/02 06:04:42;;;;;;;204.38;54.75;;;;;;;17.24;100.00;101838.16;5027909;28;20319;-89
2023/09/02 06:07:08;;;;;;;442.38;75.30;;;;;;;17.23;100.00;101842.69;5013542;28;20565;-90
2023/09/02 06:09:34;;;;;;;170.45;49.85;;;;;;;17.28;100.00;101836.97;5022935;28;20038;-91
2023/09/02 06:11:59;;;;;;;219.13;56.95;;;;;;;17.12;100.00;101839.94;5054096;28;21062;-90
2023/09/02 06:14:26;;;;;;;232.32;57.45;;;;;;;17.38;100.00;101829.88;5019630;28;20069;-89
2023/09/02 06:16:51;;;;;;;107.47;50.85;;;;;;;17.52;100.00;101820.72;5035959;28;20105;-89
2023/09/02 06:19:17;;;;;;;86.97;44.95;;;;;;;17.61;100.00;101814.63;5037268;28;20120;-88
2023/09/02 06:21:42;;;;;;;92.97;45.65;;;;;;;17.52;100.00;101818.91;5034958;28;20042;-90
2023/09/02 06:24:08;;;;;;;135.05;51.17;;;;;;;17.72;100.00;101821.88;5023032;28;20037;-88
2023/09/02 06:26:35;;;;;;;145.43;47.85;;;;;;;17.78;100.00;101816.91;5040443;28;20038;-89
2023/09/02 06:29:00;;;;;;;110.45;46.90;;;;;;;17.74;100.00;101814.56;5025308;28;20030;-89
2023/09/02 06:31:26;;;;;;;120.93;47.85;;;;;;;17.79;100.00;101815.94;5017273;28;20033;-88
2023/09/02 06:33:52;;;;;;;90.63;44.13;;;;;;;17.75;100.00;101817.13;5014016;28;20168;-91
2023/09/02 06:36:19;;;;;;;91.90;42.88;;;;;;;17.83;100.00;101828.19;5055321;28;20029;-92
2023/09/02 06:38:45;;;;;;;80.72;41.13;;;;;;;17.91;100.00;101827.59;5021402;28;20029;-92
2023/09/02 06:41:15;;;;;;;79.07;39.97;;;;;;;17.89;100.00;101836.78;5047747;28;20041;-90
2023/09/02 06:43:41;;;;;;;138.48;50.50;;;;;;;17.82;100.00;101842.69;5013431;28;20041;-89
2023/09/02 06:46:09;;;;;;;90.50;43.50;;;;;;;17.98;100.00;101838.78;5031842;28;20033;-91
2023/09/02 06:48:38;;;;;;;96.22;43.08;;;;;;;18.06;100.00;101845.28;5037883;28;20133;-91
2023/09/02 06:51:04;;;;;;;111.70;47.35;;;;;;;17.91;100.00;101853.72;5024307;28;20504;-91
2023/09/02 06:53:30;;;;;;;93.53;42.28;;;;;;;17.69;100.00;101857.19;5040339;28;20183;-91
2023/09/02 06:55:58;;;;;;;104.80;44.55;;;;;;;17.72;100.00;101870.44;5032338;28;20067;-90
2023/09/02 06:58:24;;;;;;;120.85;47.75;;;;;;;17.74;100.00;101868.53;5033285;28;20049;-89
2023/09/02 07:00:50;;;;;;;98.00;44.42;;;;;;;17.82;100.00;101871.47;5028482;28;20084;-90
2023/09/02 07:03:15;;;;;;;98.28;44.42;;;;;;;17.88;100.00;101873.72;5016841;28;20044;-91
2023/09/02 07:05:41;;;;;;;121.43;47.15;;;;;;;17.89;100.00;101870.03;5018831;28;20033;-91
2023/09/02 07:08:07;;;;;;;76.10;37.53;;;;;;;17.94;100.00;101885.88;5031239;28;20042;-90
2023/09/02 07:10:33;;;;;;;112.68;45.72;;;;;;;17.91;100.00;101878.84;5038540;28;20034;-94
2023/09/02 07:12:58;;;;;;;146.23;51.10;;;;;;;17.87;100.00;101893.56;5038128;28;20030;-92
2023/09/02 07:15:24;;;;;;;149.23;51.42;;;;;;;17.78;100.00;101908.66;5043839;28;20056;-89
2023/09/02 07:17:49;;;;;;;119.53;46.97;;;;;;;17.69;100.00;101912.00;5050371;28;20056;-93
2023/09/02 07:20:15;;;;;;;85.00;40.22;;;;;;;17.86;100.00;101919.69;5027376;28;20034;-91
2023/09/02 07:22:41;;;;;;;85.03;39.85;;;;;;;17.95;100.00;101911.88;5011046;28;20940;-93
2023/09/02 07:25:07;;;;;;;111.35;47.30;;;;;;;17.95;100.00;101910.03;5064789;28;20041;-92
2023/09/02 07:27:33;;;;;;;132.57;49.15;;;;;;;17.95;100.00;101917.28;5023466;28;20738;-90
2023/09/02 07:29:59;;;;;;;94.85;44.25;;;;;;;18.08;100.00;101923.44;5013946;28;20042;-92
2023/09/02 07:32:26;;;;;;;104.50;43.15;;;;;;;17.94;100.00;101924.50;5026942;28;20045;-92
2023/09/02 07:34:52;;;;;;;80.75;41.92;;;;;;;18.06;100.00;101920.00;5049387;28;20061;-91
2023/09/02 07:37:20;;;;;;;120.40;48.47;;;;;;;18.04;100.00;101922.81;5025056;28;20037;-92
2023/09/02 07:39:46;;;;;;;139.55;52.50;;;;;;;17.83;100.00;101932.59;5038936;28;20463;-93
2023/09/02 07:42:12;;;;;;;98.95;46.53;;;;;;;17.84;100.00;101939.69;5027994;28;20497;-92
2023/09/02 07:44:38;;;;;;;73.88;35.13;;;;;;;18.19;100.00;101939.66;5036695;28;20479;-92
2023/09/02 07:47:04;;;;;;;76.78;33.58;;;;;;;18.52;100.00;101935.28;5057523;28;20049;-92
2023/09/02 07:49:30;;;;;;;78.90;35.78;;;;;;;18.63;100.00;101921.78;5048956;28;20121;-91
2023/09/02 07:51:55;;;;;;;68.25;35.22;;;;;;;18.24;100.00;101923.97;5053046;28;20530;-92
2023/09/02 07:54:27;;;;;;;104.93;42.22;;;;;;;18.07;100.00;101932.50;5050978;28;20124;-92
2023/09/02 07:56:54;;;;;;;93.00;39.75;;;;;;;18.03;100.00;101947.25;5028546;28;20046;-94
2023/09/02 07:59:19;;;;;;;86.22;38.95;;;;;;;18.13;100.00;101956.34;5007010;28;20034;-92
2023/09/02 08:01:45;;;;;;;103.28;41.35;;;;;;;18.26;100.00;101951.69;5054868;28;20037;-91
2023/09/02 08:04:11;;;;;;;88.95;38.17;;;;;;;18.31;100.00;101960.28;5036174;28;20115;-92
2023/09/02 08:06:37;;;;;;;82.30;38.53;;;;;;;18.20;100.00;101970.22;5047043;28;20069;-92
2023/09/02 08:09:03;;;;;;;91.00;37.13;;;;;;;18.47;100.00;101969.91;5044079;28;20022;-92
2023/09/02 08:11:32;;;;;;;72.72;35.95;;;;;;;18.68;100.00;101970.94;5027498;28;20124;-91
2023/09/02 08:13:58;;;;;;;72.18;35.65;;;;;;;18.86;100.00;101966.75;5029954;28;20041;-91
2023/09/02 08:16:24;;;;;;;85.38;37.80;;;;;;;18.88;100.00;101972.91;5032082;28;20530;-89
2023/09/02 08:18:59;;;;;;;83.82;36.75;;;;;;;19.07;100.00;101974.13;5051069;28;20174;-93
2023/09/02 08:21:27;;;;;;;73.07;35.03;;;;;;;18.82;100.00;101978.78;5036089;28;20496;-92
2023/09/02 08:23:56;;;;;;;72.57;34.00;;;;;;;18.71;100.00;101988.75;5040408;28;20639;-92
2023/09/02 08:26:21;;;;;;;89.07;38.40;;;;;;;18.45;100.00;101996.19;5043079;28;20038;-91
2023/09/02 08:28:48;;;;;;;77.97;37.80;;;;;;;18.50;100.00;101994.84;5009602;28;20396;-94
2023/09/02 08:31:20;;;;;;;70.38;35.75;;;;;;;18.90;100.00;101975.50;5023666;28;20581;-92
2023/09/02 08:33:45;;;;;;;68.97;35.33;;;;;;;19.24;100.00;101968.19;5056090;28;20037;-94
2023/09/02 08:36:17;;;;;;;72.53;34.95;;;;;;;19.34;100.00;101976.44;5036855;28;20044;-92
2023/09/02 08:38:44;;;;;;;61.67;32.10;;;;;;;19.59;100.00;101967.13;5054857;28;20885;-94
2023/09/02 08:41:26;;;;;;;60.47;32.67;;;;;;;19.15;100.00;101959.00;5013173;28;20053;-91
2023/09/02 08:44:02;;;;;;;60.35;32.80;;;;;;;19.15;100.00;101964.41;5032004;28;20042;-94
2023/09/02 08:46:32;;;;;;;72.47;32.33;;;;;;;19.47;100.00;101957.31;5024524;28;20143;-92
2023/09/02 08:49:00;;;;;;;60.58;31.05;;;;;;;19.75;100.00;101947.78;5007998;28;20128;-86
2023/09/02 08:51:27;;;;;;;57.85;29.40;;;;;;;19.59;100.00;101943.66;5018085;28;20025;-92
2023/09/02 08:53:54;;;;;;;58.58;28.48;;;;;;;19.87;100.00;101934.06;5021896;28;20029;-89
2023/09/02 08:56:31;;;;;;;54.55;31.40;;;;;;;20.34;100.00;101920.13;5006872;28;20041;-92
2023/09/02 08:58:57;;;;;;;54.05;28.55;;;;;;;20.39;100.00;101913.31;5017339;28;20041;-90
2023/09/02 09:01:31;;;;;;;57.55;31.80;;;;;;;20.11;100.00;101917.56;5032998;28;20049;-93
2023/09/02 09:03:59;;;;;;;52.95;27.90;;;;;;;20.26;100.00;101918.06;5023636;28;20030;-91
2023/09/02 09:06:28;;;;;;;52.45;27.38;;;;;;;20.18;100.00;101921.47;5022800;28;20045;-94
2023/09/02 09:08:55;;;;;;;46.05;26.55;;;;;;;20.33;100.00;101919.28;5021282;28;20030;-92
2023/09/02 09:11:25;;;;;;;54.55;28.67;;;;;;;20.64;100.00;101913.88;5004117;28;20041;-93
2023/09/02 09:13:53;;;;;;;49.20;27.25;;;;;;;20.68;100.00;101918.00;5028684;28;20049;-91
2023/09/02 09:16:25;;;;;;;51.47;27.02;;;;;;;20.75;100.00;101919.19;5024275;28;20157;-93
2023/09/02 09:18:51;;;;;;;46.13;26.02;;;;;;;20.85;100.00;101922.78;5052190;28;20037;-94
2023/09/02 09:21:17;;;;;;;47.75;26.95;;;;;;;20.49;100.00;101939.63;5021780;28;20040;-92
2023/09/02 09:23:43;;;;;;;49.38;26.58;;;;;;;20.48;100.00;101941.44;5034155;28;21005;-89
2023/09/02 09:26:11;;;;;;;45.10;26.67;;;;;;;20.29;100.00;101958.44;5024910;28;20230;-94
2023/09/02 09:28:56;;;;;;;42.72;25.63;;;;;;;20.26;100.00;101960.56;5026846;28;20093;-92
2023/09/02 09:31:25;;;;;;;43.85;27.25;;;;;;;20.23;100.00;101966.22;5056636;28;20034;-90
2023/09/02 09:34:00;;;;;;;44.00;25.90;;;;;;;20.37;100.00;101971.31;5020092;28;20041;-91
2023/09/02 09:36:28;;;;;;;47.92;27.60;;;;;;;20.50;100.00;101968.44;5026303;28;20100;-93
2023/09/02 09:39:01;;;;;;;45.85;26.73;;;;;;;20.49;100.00;101969.44;5040734;28;20033;-92
2023/09/02 09:41:31;;;;;;;41.95;25.40;;;;;;;20.95;100.00;101969.78;5040466;28;20041;-91
2023/09/02 09:44:03;;;;;;;46.08;26.75;;;;;;;20.60;100.00;101977.47;5036725;28;20033;-90
2023/09/02 09:46:29;;;;;;;40.13;25.08;;;;;;;21.06;100.00;101976.97;5029798;28;20081;-90
2023/09/02 09:49:01;;;;;;;38.20;24.15;;;;;;;21.32;100.00;101977.34;5053024;28;20105;-92
2023/09/02 09:51:27;;;;;;;38.92;26.17;;;;;;;21.34;100.00;101978.09;5025014;28;20033;-88
2023/09/02 09:53:53;;;;;;;42.47;25.48;;;;;;;20.61;100.00;101982.75;5015976;28;20041;-92
2023/09/02 09:56:20;;;;;;;42.08;26.17;;;;;;;20.94;100.00;101980.78;5024501;28;20025;-91
2023/09/02 09:58:46;;;;;;;46.78;27.20;;;;;;;20.81;100.00;101986.41;5017914;28;20033;-91
2023/09/02 10:01:25;;;;;;;42.33;26.35;;;;;;;20.91;100.00;101981.91;5025041;28;20197;-92
2023/09/02 10:03:51;;;;;;;34.90;22.80;;;;;;;21.58;100.00;101987.66;5025102;28;20065;-92
2023/09/02 10:06:21;;;;;;;41.58;25.13;;;;;;;21.39;100.00;101993.94;5015147;28;20026;-89
2023/09/02 10:09:04;;;;;;;39.35;24.48;;;;;;;21.54;100.00;101989.84;5060941;28;20037;-93
2023/09/02 10:11:30;;;;;;;39.53;24.83;;;;;;;22.09;100.00;101989.25;5032125;28;20061;-89
2023/09/02 10:13:57;;;;;;;37.60;25.40;;;;;;;21.44;100.00;101997.94;5028929;28;20510;-92
2023/09/02 10:16:28;;;;;;;37.15;24.77;;;;;;;21.71;100.00;102002.69;5031218;28;20668;-91
2023/09/02 10:18:54;;;;;;;45.57;27.07;;;;;;;22.04;100.00;102005.13;5043736;28;20042;-90
2023/09/02 10:21:23;;;;;;;37.60;25.30;;;;;;;21.55;100.00;102007.81;5021346;28;20095;-92
2023/09/02 10:23:54;;;;;;;33.72;24.15;;;;;;;21.34;100.00;102015.22;5035903;28;20380;-92
2023/09/02 10:26:44;;;;;;;39.97;24.03;;;;;;;22.00;100.00;102006.44;5042219;28;20050;-91
2023/09/02 10:29:13;;;;;;;39.05;25.23;;;;;;;21.50;100.00;102011.97;5034990;28;20412;-89
2023/09/02 10:31:40;;;;;;;38.53;26.77;;;;;;;20.97;100.00;102018.47;5042323;28;20109;-89
2023/09/02 10:34:39;;;;;;;37.88;25.30;;;;;;;21.75;100.00;102019.56;5021565;28;20029;-94
2023/09/02 10:37:08;;;;;;;36.42;24.75;;;;;;;22.09;100.00;102009.16;5013105;28;20068;-91
2023/09/02 10:39:38;;;;;;;36.42;24.20;;;;;;;21.49;100.00;102016.53;5028326;28;20033;-95
2023/09/02 10:42:06;;;;;;;40.70;25.33;;;;;;;21.47;100.00;102026.66;5019310;28;20042;-91
2023/09/02 10:44:32;;;;;;;39.25;25.52;;;;;;;21.83;100.00;102040.56;5050808;28;20112;-90
2023/09/02 10:46:59;;;;;;;35.58;24.27;;;;;;;22.17;100.00;102022.03;5049544;28;20109;-92
2023/09/02 10:49:26;;;;;;;38.22;25.67;;;;;;;21.09;100.00;102039.09;5039842;28;20044;-92
2023/09/02 10:51:53;;;;;;;37.35;24.40;;;;;;;21.16;100.00;102044.81;5036300;28;20088;-91
2023/09/02 10:54:20;;;;;;;39.10;24.63;;;;;;;21.17;100.00;102047.38;5028082;28;20659;-90
2023/09/02 10:56:46;;;;;;;35.97;23.55;;;;;;;21.86;100.00;102037.59;5033151;28;20041;-91
2023/09/02 10:59:28;;;;;;;34.47;23.80;;;;;;;21.53;100.00;102033.38;5047285;28;20041;-91
2023/09/02 11:01:57;;;;;;;35.58;23.75;;;;;;;21.41;100.00;102036.22;5041377;28;20060;-87